Time;durP1;ratioP1;P1;durP2;ratioP2;P2;SDS_P1;SDS_P2;PMS_P1;PMS_P2;Temp;Humidity;BMP_temperature;BMP_pressure;BME280_temperature;BME280_humidity;BME280_pressure;Samples;Min_cycle;Max_cycle;Signal;HPM_P1;HPM_P2
2022/06/11 00:00:47;;;;;;;2.63;1.83;;;14.90;91.70;;;;;;4187876;28;20921;-74
2022/06/11 00:02:49;;;;;;;3.10;1.83;;;14.90;91.70;;;;;;4196420;28;20067;-74
2022/06/11 00:04:51;;;;;;;2.08;1.75;;;14.90;91.60;;;;;;4194883;28;20156;-75
2022/06/11 00:06:58;;;;;;;2.10;1.67;;;14.90;91.50;;;;;;4196665;28;20180;-75
2022/06/11 00:09:00;;;;;;;5.53;2.33;;;14.90;91.50;;;;;;4197155;28;20146;-75
2022/06/11 00:11:02;;;;;;;4.20;1.75;;;15.00;91.40;;;;;;4195162;28;20061;-75
2022/06/11 00:13:05;;;;;;;2.03;1.73;;;15.00;91.40;;;;;;4195611;28;20860;-75
2022/06/11 00:15:09;;;;;;;3.15;2.00;;;14.90;91.40;;;;;;4195837;28;20736;-75
2022/06/11 00:17:13;;;;;;;3.75;2.33;;;14.90;91.60;;;;;;4196108;28;20088;-75
2022/06/11 00:19:15;;;;;;;3.60;1.90;;;14.80;91.60;;;;;;4196909;28;20068;-74
2022/06/11 00:21:17;;;;;;;3.63;2.17;;;14.80;91.70;;;;;;4194440;28;20041;-74
2022/06/11 00:23:19;;;;;;;2.42;1.95;;;14.70;91.90;;;;;;4195793;28;20057;-74
2022/06/11 00:25:21;;;;;;;2.40;1.80;;;14.70;92.00;;;;;;4195879;28;20786;-74
2022/06/11 00:27:23;;;;;;;2.55;1.40;;;14.70;92.10;;;;;;4197586;28;20103;-74
2022/06/11 00:29:28;;;;;;;3.83;2.00;;;14.70;92.10;;;;;;4197010;28;20056;-74
2022/06/11 00:31:31;;;;;;;3.05;1.90;;;14.60;92.10;;;;;;4193388;28;20208;-74
2022/06/11 00:33:35;;;;;;;3.72;2.25;;;14.60;92.30;;;;;;4197104;28;20053;-74
2022/06/11 00:35:38;;;;;;;2.15;1.95;;;14.50;92.50;;;;;;4193348;28;20608;-74
2022/06/11 00:37:40;;;;;;;3.58;2.20;;;14.50;92.60;;;;;;4197000;28;20096;-74
2022/06/11 00:39:42;;;;;;;1.88;1.60;;;14.50;92.80;;;;;;4197295;28;20875;-74
2022/06/11 00:41:46;;;;;;;2.30;1.52;;;14.50;92.80;;;;;;4196281;28;20088;-74
2022/06/11 00:43:49;;;;;;;1.88;1.77;;;14.50;93.00;;;;;;4196925;28;20053;-74
2022/06/11 00:46:20;;;;;;;4.43;1.80;;;14.40;93.20;;;;;;4192950;28;20138;-74
2022/06/11 00:48:28;;;;;;;;;;;14.40;93.20;;;;;;4198191;28;20056;-73
2022/06/11 00:50:38;;;;;;;2.67;2.20;;;14.40;93.10;;;;;;4209835;28;19975;-74
2022/06/11 00:52:44;;;;;;;2.80;2.22;;;14.30;93.30;;;;;;4196974;28;20107;-74
2022/06/11 00:55:14;;;;;;;2.58;2.00;;;14.30;93.30;;;;;;4196602;28;20155;-74
2022/06/11 00:57:17;;;;;;;5.47;1.80;;;14.30;93.50;;;;;;4195896;28;20096;-74
2022/06/11 00:59:27;;;;;;;1.35;1.25;;;14.30;93.50;;;;;;4196643;28;20099;-73
2022/06/11 01:01:30;;;;;;;1.73;1.60;;;14.30;93.50;;;;;;4195983;28;20686;-74
2022/06/11 01:03:36;;;;;;;1.60;1.50;;;14.30;93.50;;;;;;4196651;28;20848;-74
2022/06/11 01:05:42;;;;;;;1.60;1.50;;;14.30;93.40;;;;;;4196243;28;20048;-74
2022/06/11 01:07:56;;;;;;;3.15;1.92;;;14.20;93.50;;;;;;4194359;28;20151;-74
2022/06/11 01:10:24;;;;;;;4.70;1.90;;;14.20;93.70;;;;;;4195989;28;20261;-74
2022/06/11 01:12:32;;;;;;;2.90;1.85;;;14.20;93.70;;;;;;4194338;28;20060;-74
2022/06/11 01:14:50;;;;;;;2.35;2.00;;;14.20;93.80;;;;;;4194726;28;20780;-74
2022/06/11 01:17:07;;;;;;;2.03;1.92;;;14.20;93.80;;;;;;4194950;28;20064;-74
2022/06/11 01:19:31;;;;;;;5.30;2.20;;;14.10;93.80;;;;;;4194177;28;20755;-73
2022/06/11 01:22:01;;;;;;;3.38;1.73;;;14.10;93.90;;;;;;4194825;28;20053;-73
2022/06/11 01:24:08;;;;;;;5.28;1.90;;;14.10;93.90;;;;;;4195465;28;20171;-73
2022/06/11 01:26:49;;;;;;;2.00;1.38;;;14.10;93.90;;;;;;4195985;28;20057;-74
2022/06/11 01:29:10;;;;;;;;;;;14.10;94.00;;;;;;4195317;28;20064;-74
2022/06/11 01:31:27;;;;;;;3.33;2.40;;;14.10;94.10;;;;;;4196327;28;19928;-74
2022/06/11 01:33:59;;;;;;;2.10;1.90;;;14.00;94.10;;;;;;4193634;28;20868;-73
2022/06/11 01:36:17;;;;;;;2.17;2.08;;;14.00;94.20;;;;;;4195592;28;20200;-73
2022/06/11 01:38:38;;;;;;;2.00;1.80;;;14.00;94.20;;;;;;4195416;28;20057;-73
2022/06/11 01:40:44;;;;;;;;;;;14.00;94.30;;;;;;4196805;28;20099;-74
2022/06/11 01:43:00;;;;;;;1.77;1.40;;;14.00;94.40;;;;;;4192991;28;19929;-74
2022/06/11 01:45:12;;;;;;;2.03;1.90;;;14.00;94.60;;;;;;4196086;28;20104;-73
2022/06/11 01:47:14;;;;;;;2.47;1.70;;;13.90;94.70;;;;;;4194594;28;20148;-73
2022/06/11 01:49:22;;;;;;;2.17;1.60;;;13.90;94.60;;;;;;4195997;28;20151;-74
2022/06/11 01:52:08;;;;;;;3.90;2.20;;;13.90;94.70;;;;;;4195771;28;20095;-74
2022/06/11 01:54:35;;;;;;;2.50;2.13;;;13.90;94.80;;;;;;4194905;28;20785;-73
2022/06/11 01:57:15;;;;;;;2.10;1.73;;;13.90;94.90;;;;;;4182218;28;20792;-74
2022/06/11 01:59:35;;;;;;;2.17;1.97;;;13.90;94.80;;;;;;4183227;28;20052;-73
2022/06/11 02:02:02;;;;;;;2.55;1.73;;;13.90;94.90;;;;;;4195213;28;20096;-74
2022/06/11 02:04:18;;;;;;;3.83;1.52;;;13.90;94.90;;;;;;4194870;28;20092;-74
2022/06/11 02:06:35;;;;;;;4.22;1.83;;;13.90;94.90;;;;;;4195874;28;20063;-74
2022/06/11 02:09:03;;;;;;;3.35;1.80;;;13.90;95.00;;;;;;4193769;28;20092;-75
2022/06/11 02:11:14;;;;;;;3.42;1.33;;;13.90;95.00;;;;;;4196038;28;20099;-74
2022/06/11 02:13:28;;;;;;;2.38;2.00;;;13.90;94.90;;;;;;4198734;28;20780;-74
2022/06/11 02:15:39;;;;;;;1.50;1.40;;;13.90;94.80;;;;;;4197586;28;20056;-74
2022/06/11 02:17:43;;;;;;;;;;;13.90;95.20;;;;;;4198356;28;20061;-74
2022/06/11 02:19:50;;;;;;;1.58;1.30;;;13.90;94.70;;;;;;4196893;28;19935;-74
2022/06/11 02:22:02;;;;;;;2.08;1.60;;;13.90;95.10;;;;;;4196677;28;20180;-74
2022/06/11 02:24:10;;;;;;;3.85;1.58;;;13.90;94.70;;;;;;4198217;28;20100;-74
2022/06/11 02:26:17;;;;;;;2.10;1.40;;;14.00;94.60;;;;;;4196490;28;20140;-74
2022/06/11 02:28:28;;;;;;;2.75;1.40;;;14.00;94.40;;;;;;4197958;28;20061;-74
2022/06/11 02:30:31;;;;;;;1.80;1.40;;;14.00;94.20;;;;;;4194915;28;20156;-74
2022/06/11 02:32:32;;;;;;;2.00;1.40;;;14.00;94.30;;;;;;4196900;28;20083;-75
2022/06/11 02:34:43;;;;;;;1.60;1.50;;;14.00;94.30;;;;;;4195838;28;20095;-74
2022/06/11 02:37:09;;;;;;;1.27;1.13;;;14.00;94.40;;;;;;4196486;28;20092;-74
2022/06/11 02:39:11;;;;;;;4.70;1.73;;;14.00;94.00;;;;;;4198052;28;20064;-74
2022/06/11 02:41:20;;;;;;;1.52;1.42;;;14.00;94.10;;;;;;4200908;28;20655;-74
2022/06/11 02:43:22;;;;;;;2.22;1.23;;;14.10;94.00;;;;;;4198684;28;20159;-73
2022/06/11 02:45:24;;;;;;;1.65;1.50;;;14.10;94.10;;;;;;4197375;28;21405;-74
2022/06/11 02:47:26;;;;;;;2.85;1.83;;;14.10;94.10;;;;;;4197565;28;20057;-74
2022/06/11 02:49:32;;;;;;;2.85;1.65;;;14.10;93.90;;;;;;4198424;28;20167;-73
2022/06/11 02:51:34;;;;;;;1.70;1.33;;;14.10;93.60;;;;;;4198096;28;20148;-72
2022/06/11 02:53:35;;;;;;;2.75;1.58;;;14.20;93.50;;;;;;4195838;28;20068;-74
2022/06/11 02:55:38;;;;;;;2.42;1.50;;;14.20;93.00;;;;;;4195705;28;20060;-74
2022/06/11 02:57:40;;;;;;;1.63;1.30;;;14.20;92.80;;;;;;4198280;28;20715;-74
2022/06/11 02:59:44;;;;;;;4.28;2.03;;;14.20;92.50;;;;;;4196996;28;20868;-74
2022/06/11 03:01:46;;;;;;;1.83;1.40;;;14.30;92.30;;;;;;4197609;28;20060;-74
2022/06/11 03:03:49;;;;;;;3.75;1.35;;;14.30;92.30;;;;;;4198402;28;21224;-74
2022/06/11 03:05:52;;;;;;;3.17;1.60;;;14.30;92.70;;;;;;4197841;28;20880;-75
2022/06/11 03:07:54;;;;;;;2.70;2.45;;;14.30;92.50;;;;;;4194732;28;20214;-73
2022/06/11 03:09:56;;;;;;;3.80;1.90;;;14.30;92.30;;;;;;4197698;28;20061;-74
2022/06/11 03:12:00;;;;;;;2.13;1.80;;;14.30;92.40;;;;;;4197643;28;20057;-74
2022/06/11 03:14:02;;;;;;;3.50;1.48;;;14.30;92.60;;;;;;4197744;28;20063;-74
2022/06/11 03:16:04;;;;;;;2.13;1.75;;;14.30;92.80;;;;;;4197395;28;20131;-74
2022/06/11 03:18:06;;;;;;;2.20;1.65;;;14.30;92.60;;;;;;4192867;28;20871;-74
2022/06/11 03:20:10;;;;;;;2.42;1.50;;;14.20;92.60;;;;;;4195923;28;20113;-73
2022/06/11 03:22:12;;;;;;;2.28;1.70;;;14.20;92.70;;;;;;4196861;28;20061;-74
2022/06/11 03:24:14;;;;;;;6.32;1.75;;;14.10;92.80;;;;;;4197294;28;20183;-73
2022/06/11 03:26:17;;;;;;;2.30;1.75;;;14.10;92.80;;;;;;4196268;28;20115;-74
2022/06/11 03:28:23;;;;;;;2.13;1.70;;;14.10;92.90;;;;;;4197794;28;20063;-73
2022/06/11 03:30:25;;;;;;;6.45;2.30;;;14.00;93.10;;;;;;4197900;28;20127;-74
2022/06/11 03:32:27;;;;;;;2.35;2.03;;;14.00;93.20;;;;;;4194147;28;20061;-74
2022/06/11 03:34:28;;;;;;;3.28;1.90;;;13.90;93.40;;;;;;4197928;28;20748;-74
2022/06/11 03:36:31;;;;;;;2.13;1.55;;;13.90;93.50;;;;;;4196598;28;20223;-74
2022/06/11 03:38:33;;;;;;;1.70;1.60;;;13.90;93.50;;;;;;4195421;28;20115;-74
2022/06/11 03:40:35;;;;;;;4.22;1.50;;;13.90;93.50;;;;;;4197484;28;20057;-75
2022/06/11 03:42:37;;;;;;;3.35;1.65;;;13.90;93.40;;;;;;4194028;28;20053;-75
2022/06/11 03:44:39;;;;;;;2.00;1.90;;;13.90;93.40;;;;;;4197606;28;20092;-75
2022/06/11 03:46:41;;;;;;;5.28;1.55;;;13.90;93.30;;;;;;4197048;28;20061;-74
2022/06/11 03:48:44;;;;;;;2.55;1.70;;;13.90;93.20;;;;;;4196457;28;20057;-75
2022/06/11 03:50:45;;;;;;;8.18;2.03;;;13.90;93.20;;;;;;4197082;28;20056;-74
2022/06/11 03:52:47;;;;;;;2.92;1.98;;;13.90;93.40;;;;;;4196167;28;20057;-74
2022/06/11 03:54:49;;;;;;;4.22;1.83;;;13.90;93.50;;;;;;4197154;28;20068;-74
2022/06/11 03:56:51;;;;;;;3.15;1.80;;;13.90;93.70;;;;;;4196856;28;20191;-74
2022/06/11 03:58:53;;;;;;;3.15;1.95;;;13.90;93.70;;;;;;4196637;28;20064;-74
2022/06/11 04:03:17;;;;;;;3.63;1.65;;;13.90;93.70;;;;;;4196395;28;20176;-74
2022/06/11 04:05:19;;;;;;;3.80;1.90;;;13.90;93.70;;;;;;4196312;28;20141;-74
2022/06/11 04:07:21;;;;;;;1.90;1.70;;;13.90;93.70;;;;;;4196719;28;20152;-74
2022/06/11 04:09:38;;;;;;;2.15;1.95;;;13.90;93.60;;;;;;4196385;28;20072;-74
2022/06/11 04:11:40;;;;;;;3.63;2.15;;;13.90;93.60;;;;;;4195832;28;20085;-74
2022/06/11 04:13:44;;;;;;;4.28;1.85;;;14.00;93.70;;;;;;4194913;28;20065;-73
2022/06/11 04:15:46;;;;;;;2.13;1.67;;;14.00;93.80;;;;;;4193430;28;20761;-74
2022/06/11 04:17:48;;;;;;;1.13;1.08;;;14.00;93.80;;;;;;4194087;28;20123;-74
2022/06/11 04:19:51;;;;;;;2.30;1.48;;;14.10;93.80;;;;;;4194929;28;20061;-74
2022/06/11 04:21:54;;;;;;;2.95;1.40;;;14.10;93.80;;;;;;4194356;28;20184;-74
2022/06/11 04:23:57;;;;;;;3.22;1.63;;;14.10;93.60;;;;;;4197457;28;20060;-74
2022/06/11 04:26:03;;;;;;;1.75;1.40;;;14.20;93.60;;;;;;4199533;28;20798;-73
2022/06/11 04:28:05;;;;;;;3.72;1.88;;;14.20;93.70;;;;;;4197255;28;20057;-74
2022/06/11 04:30:09;;;;;;;1.90;1.63;;;14.30;93.70;;;;;;4196970;28;20057;-74
2022/06/11 04:32:15;;;;;;;1.83;1.23;;;14.30;93.70;;;;;;4191096;28;20104;-73
2022/06/11 04:34:17;;;;;;;4.47;1.35;;;14.30;93.70;;;;;;4196255;28;20157;-74
2022/06/11 04:36:22;;;;;;;3.13;1.40;;;14.30;93.60;;;;;;4196784;28;20053;-74
2022/06/11 04:38:25;;;;;;;2.35;1.15;;;14.40;93.20;;;;;;4195597;28;20067;-74
2022/06/11 04:40:27;;;;;;;3.15;1.92;;;14.40;93.00;;;;;;4196633;28;20720;-74
2022/06/11 04:42:29;;;;;;;2.33;1.00;;;14.50;92.80;;;;;;4193727;28;20781;-73
2022/06/11 04:44:31;;;;;;;1.20;1.10;;;14.50;92.70;;;;;;4196252;28;20061;-74
2022/06/11 04:46:33;;;;;;;3.60;1.63;;;14.60;92.60;;;;;;4195202;28;20053;-74
2022/06/11 04:48:35;;;;;;;1.98;1.10;;;14.60;92.30;;;;;;4196541;28;20789;-73
2022/06/11 04:50:37;;;;;;;1.38;1.27;;;14.70;92.20;;;;;;4193900;28;20058;-74
2022/06/11 04:52:39;;;;;;;1.25;1.15;;;14.70;92.00;;;;;;4193849;28;20065;-73
2022/06/11 04:54:41;;;;;;;2.83;1.40;;;14.80;92.00;;;;;;4196715;28;20057;-73
2022/06/11 04:56:43;;;;;;;2.67;1.20;;;14.80;91.80;;;;;;4196415;28;20100;-74
2022/06/11 04:58:45;;;;;;;1.85;1.23;;;14.90;91.70;;;;;;4196063;28;20705;-73
2022/06/11 05:00:47;;;;;;;5.00;1.25;;;15.00;91.60;;;;;;4196665;28;20592;-73
2022/06/11 05:02:49;;;;;;;1.48;1.38;;;15.00;91.50;;;;;;4195949;28;20167;-74
2022/06/11 05:04:52;;;;;;;4.75;1.83;;;15.10;91.50;;;;;;4196285;28;20053;-74
2022/06/11 05:06:54;;;;;;;1.88;1.20;;;15.10;91.30;;;;;;4196419;28;20068;-74
2022/06/11 05:08:56;;;;;;;2.75;1.52;;;15.10;91.30;;;;;;4194456;28;20057;-75
2022/06/11 05:10:58;;;;;;;1.38;1.00;;;15.20;91.30;;;;;;4196368;28;20067;-74
2022/06/11 05:13:01;;;;;;;1.65;1.30;;;15.30;91.30;;;;;;4196801;28;20909;-75
2022/06/11 05:15:04;;;;;;;2.03;1.00;;;15.30;91.30;;;;;;4196265;28;20160;-76
2022/06/11 05:17:06;;;;;;;2.10;1.05;;;15.30;91.30;;;;;;4196705;28;20152;-75
2022/06/11 05:19:10;;;;;;;1.45;1.30;;;15.40;91.30;;;;;;4195285;28;20630;-76
2022/06/11 05:21:12;;;;;;;1.25;1.15;;;15.40;91.30;;;;;;4196258;28;20175;-76
2022/06/11 05:23:14;;;;;;;1.27;1.02;;;15.50;91.40;;;;;;4196798;28;20651;-76
2022/06/11 05:25:18;;;;;;;1.58;1.20;;;15.60;91.30;;;;;;4196583;28;20876;-75
2022/06/11 05:27:24;;;;;;;2.78;1.23;;;15.60;91.10;;;;;;4195977;28;20057;-75
2022/06/11 05:29:41;;;;;;;2.35;1.38;;;15.70;91.00;;;;;;4196385;28;20147;-76
2022/06/11 05:31:42;;;;;;;1.13;1.02;;;15.70;91.00;;;;;;4196265;28;20620;-76
2022/06/11 05:33:45;;;;;;;1.17;1.00;;;15.80;91.20;;;;;;4195547;28;20053;-76
2022/06/11 05:35:48;;;;;;;2.38;1.27;;;15.80;91.00;;;;;;4197059;28;20175;-76
2022/06/11 05:37:53;;;;;;;1.83;1.20;;;15.90;90.90;;;;;;4196963;28;20057;-76
2022/06/11 05:39:55;;;;;;;1.65;1.15;;;15.90;90.80;;;;;;4196980;28;20055;-76
2022/06/11 05:41:58;;;;;;;2.95;1.33;;;16.00;90.70;;;;;;4193318;28;20797;-76
2022/06/11 05:43:59;;;;;;;2.00;0.80;;;16.00;90.40;;;;;;4196634;28;20168;-77
2022/06/11 05:46:22;;;;;;;1.30;1.10;;;16.10;90.40;;;;;;4197226;28;20130;-76
2022/06/11 05:48:29;;;;;;;2.67;1.02;;;16.10;90.50;;;;;;4199002;28;20069;-76
2022/06/11 05:50:35;;;;;;;3.00;1.05;;;16.20;90.70;;;;;;4201841;28;20057;-75
2022/06/11 05:52:39;;;;;;;1.80;1.10;;;16.20;90.80;;;;;;4200037;28;20883;-76
2022/06/11 05:54:41;;;;;;;2.10;1.20;;;16.20;90.50;;;;;;4195944;28;20667;-75
2022/06/11 05:56:43;;;;;;;4.30;1.30;;;16.30;90.30;;;;;;4199336;28;20143;-75
2022/06/11 05:58:49;;;;;;;1.42;1.00;;;16.30;90.50;;;;;;4197492;28;20164;-76
2022/06/11 06:00:52;;;;;;;1.20;1.00;;;16.40;90.40;;;;;;4198698;28;20063;-74
2022/06/11 06:02:54;;;;;;;1.83;1.27;;;16.40;90.50;;;;;;4197960;28;20807;-75
2022/06/11 06:04:56;;;;;;;1.50;1.10;;;16.50;90.30;;;;;;4199878;28;20056;-77
2022/06/11 06:06:58;;;;;;;2.58;1.17;;;16.50;90.40;;;;;;4198372;28;20654;-76
2022/06/11 06:08:59;;;;;;;2.40;1.65;;;16.60;90.00;;;;;;4201869;28;20079;-76
2022/06/11 06:11:01;;;;;;;2.88;1.20;;;16.60;90.00;;;;;;4197498;28;20261;-77
2022/06/11 06:13:45;;;;;;;3.42;1.08;;;16.70;90.10;;;;;;4199075;28;20177;-75
2022/06/11 06:15:29;;;;;;;1.83;1.00;;;16.70;90.20;;;;;;4197189;28;20103;-75
2022/06/11 06:17:31;;;;;;;2.50;1.33;;;16.70;90.10;;;;;;4200253;28;20115;-76
2022/06/11 06:19:34;;;;;;;3.60;1.10;;;16.80;89.80;;;;;;4199911;28;20045;-78
2022/06/11 06:21:37;;;;;;;2.22;1.02;;;16.80;88.60;;;;;;4197979;28;20061;-76
2022/06/11 06:23:39;;;;;;;2.83;1.10;;;16.90;88.40;;;;;;4200191;28;20057;-77
2022/06/11 06:25:41;;;;;;;1.85;1.75;;;16.90;87.70;;;;;;4200033;28;20156;-78
2022/06/11 06:27:42;;;;;;;3.28;1.60;;;17.00;86.20;;;;;;4200045;28;20087;-77
2022/06/11 06:29:51;;;;;;;3.03;1.10;;;17.10;85.90;;;;;;4194540;28;20119;-77
2022/06/11 06:31:53;;;;;;;2.90;2.60;;;17.10;86.20;;;;;;4198376;28;20847;-74
2022/06/11 06:33:58;;;;;;;3.50;2.90;;;17.20;86.30;;;;;;4198610;28;20099;-73
2022/06/11 06:36:03;;;;;;;4.07;2.20;;;17.20;86.60;;;;;;4197230;28;20053;-73
2022/06/11 06:38:06;;;;;;;1.25;1.13;;;17.20;87.10;;;;;;4196981;28;20107;-73
2022/06/11 06:40:08;;;;;;;1.33;0.93;;;17.20;85.60;;;;;;4198418;28;20180;-73
2022/06/11 06:42:10;;;;;;;1.27;0.80;;;17.30;85.40;;;;;;4196830;28;20160;-73
2022/06/11 06:44:11;;;;;;;1.92;0.85;;;17.30;85.20;;;;;;4198194;28;20060;-73
2022/06/11 06:46:14;;;;;;;1.35;1.13;;;17.30;84.70;;;;;;4197973;28;20056;-73
2022/06/11 06:48:16;;;;;;;3.55;0.93;;;17.30;84.10;;;;;;4198564;28;20127;-73
2022/06/11 06:50:18;;;;;;;2.40;1.00;;;17.40;84.00;;;;;;4197648;28;20156;-73
2022/06/11 06:52:20;;;;;;;3.72;1.15;;;17.40;83.50;;;;;;4196629;28;20057;-73
2022/06/11 06:54:22;;;;;;;1.90;1.00;;;17.50;83.50;;;;;;4198100;28;20149;-73
2022/06/11 06:56:29;;;;;;;4.20;1.10;;;17.50;83.30;;;;;;4197643;28;20147;-74
2022/06/11 06:58:31;;;;;;;2.38;0.90;;;17.50;83.50;;;;;;4193874;28;20666;-74
2022/06/11 07:00:32;;;;;;;3.05;1.00;;;17.60;83.60;;;;;;4197840;28;20053;-73
2022/06/11 07:02:34;;;;;;;5.18;1.13;;;17.60;83.90;;;;;;4197743;28;20103;-73
2022/06/11 07:04:37;;;;;;;3.85;1.25;;;17.70;83.20;;;;;;4197362;28;20061;-73
2022/06/11 07:06:40;;;;;;;1.77;1.35;;;17.80;82.60;;;;;;4196513;28;20059;-73
2022/06/11 07:08:42;;;;;;;2.75;1.20;;;17.80;82.70;;;;;;4197589;28;20099;-73
2022/06/11 07:10:49;;;;;;;4.82;1.30;;;17.90;83.10;;;;;;4197934;28;20057;-73
2022/06/11 07:12:51;;;;;;;1.75;1.42;;;17.90;82.70;;;;;;4197332;28;20215;-72
2022/06/11 07:14:53;;;;;;;2.42;1.80;;;17.90;82.80;;;;;;4196175;28;20103;-73
2022/06/11 07:17:02;;;;;;;3.53;1.20;;;18.00;83.10;;;;;;4197078;28;20049;-73
2022/06/11 07:19:10;;;;;;;1.27;1.17;;;18.10;84.00;;;;;;4195426;28;20053;-73
2022/06/11 07:21:21;;;;;;;3.33;1.02;;;18.10;83.20;;;;;;4192497;28;20182;-73
2022/06/11 07:23:29;;;;;;;1.90;0.95;;;18.20;79.90;;;;;;4198099;28;20560;-73
2022/06/11 07:25:32;;;;;;;3.10;0.88;;;18.30;80.50;;;;;;4196557;28;20057;-73
2022/06/11 07:27:45;;;;;;;1.55;0.90;;;18.30;79.70;;;;;;4195456;28;20071;-74
2022/06/11 07:30:13;;;;;;;2.00;0.90;;;18.40;79.80;;;;;;4197284;28;20147;-73
2022/06/11 07:32:19;;;;;;;1.50;0.80;;;18.40;79.80;;;;;;4196129;28;20103;-72
2022/06/11 07:34:21;;;;;;;1.50;1.30;;;18.40;80.30;;;;;;4197314;28;20088;-73
2022/06/11 07:36:23;;;;;;;1.70;0.90;;;18.50;79.80;;;;;;4195337;28;20080;-74
2022/06/11 07:38:25;;;;;;;2.92;1.27;;;18.50;80.10;;;;;;4197240;28;20176;-72
2022/06/11 07:40:27;;;;;;;2.75;0.90;;;18.60;80.00;;;;;;4196814;28;20096;-73
2022/06/11 07:42:28;;;;;;;2.95;1.15;;;18.60;80.70;;;;;;4197385;28;20100;-74
2022/06/11 07:44:31;;;;;;;2.15;1.00;;;18.60;80.00;;;;;;4195139;28;20091;-73
2022/06/11 07:46:32;;;;;;;6.32;1.33;;;18.70;79.20;;;;;;4194725;28;20207;-73
2022/06/11 07:48:34;;;;;;;1.92;1.27;;;18.90;78.10;;;;;;4197451;28;20092;-72
2022/06/11 07:50:55;;;;;;;1.27;0.73;;;18.90;78.30;;;;;;4197574;28;20067;-73
2022/06/11 07:52:57;;;;;;;1.08;0.82;;;19.00;78.40;;;;;;4194550;28;20093;-71
2022/06/11 07:54:59;;;;;;;5.43;1.45;;;19.00;77.70;;;;;;4196263;28;20088;-71
2022/06/11 07:57:01;;;;;;;2.53;0.98;;;19.10;77.10;;;;;;4194429;28;20057;-72
2022/06/11 07:59:09;;;;;;;3.97;1.27;;;19.50;75.40;;;;;;4196319;28;20073;-71
2022/06/11 08:01:11;;;;;;;2.50;1.25;;;19.80;74.40;;;;;;4196035;28;20164;-73
2022/06/11 08:03:13;;;;;;;3.58;1.40;;;20.00;72.00;;;;;;4194646;28;20064;-72
2022/06/11 08:05:16;;;;;;;1.42;0.80;;;20.30;71.00;;;;;;4196877;28;20831;-70
2022/06/11 08:07:18;;;;;;;2.28;1.30;;;20.50;69.40;;;;;;4196756;28;20067;-71
2022/06/11 08:09:20;;;;;;;3.20;1.40;;;20.70;70.50;;;;;;4197035;28;20092;-71
2022/06/11 08:11:22;;;;;;;1.30;0.90;;;20.80;68.90;;;;;;4197109;28;20053;-74
2022/06/11 08:13:25;;;;;;;14.82;1.17;;;20.80;67.40;;;;;;4194892;28;20075;-71
2022/06/11 08:15:27;;;;;;;4.18;1.33;;;20.90;68.90;;;;;;4196649;28;20957;-72
2022/06/11 08:17:29;;;;;;;1.67;0.70;;;21.00;66.70;;;;;;4195654;28;20061;-71
2022/06/11 08:19:31;;;;;;;2.92;1.30;;;21.10;65.30;;;;;;4193235;28;20057;-72
2022/06/11 08:21:33;;;;;;;1.92;1.17;;;21.20;67.90;;;;;;4194212;28;20647;-72
2022/06/11 08:23:36;;;;;;;1.42;0.80;;;21.20;66.30;;;;;;4194837;28;20791;-72
2022/06/11 08:25:38;;;;;;;1.90;0.73;;;21.10;65.90;;;;;;4196628;28;20100;-71
2022/06/11 08:27:40;;;;;;;3.53;1.00;;;21.10;67.00;;;;;;4196838;28;20095;-72
2022/06/11 08:29:42;;;;;;;3.88;0.95;;;21.20;66.10;;;;;;4197340;28;20096;-71
2022/06/11 08:31:44;;;;;;;2.35;1.20;;;21.30;64.70;;;;;;4196129;28;20061;-72
2022/06/11 08:33:45;;;;;;;0.90;0.73;;;21.30;65.90;;;;;;4195936;28;20057;-71
2022/06/11 08:35:52;;;;;;;3.03;0.88;;;21.40;65.80;;;;;;4195928;28;20091;-71
2022/06/11 08:37:54;;;;;;;8.68;1.30;;;21.50;64.90;;;;;;4196055;28;20061;-72
2022/06/11 08:39:56;;;;;;;1.55;0.88;;;21.40;64.40;;;;;;4193912;28;20064;-71
2022/06/11 08:41:59;;;;;;;3.95;1.10;;;21.50;65.20;;;;;;4195027;28;20053;-70
2022/06/11 08:44:11;;;;;;;1.92;1.10;;;21.60;65.70;;;;;;4194771;28;20061;-71
2022/06/11 08:46:16;;;;;;;1.33;0.88;;;21.70;64.80;;;;;;4192527;28;20045;-71
2022/06/11 08:48:31;;;;;;;1.17;0.77;;;21.80;65.00;;;;;;4194798;28;20060;-71
2022/06/11 08:50:40;;;;;;;2.22;0.90;;;21.90;65.30;;;;;;4194902;28;20151;-71
2022/06/11 08:52:42;;;;;;;0.73;0.70;;;21.90;63.10;;;;;;4195079;28;20061;-71
2022/06/11 08:54:46;;;;;;;1.55;0.80;;;22.00;64.30;;;;;;4195601;28;20274;-71
2022/06/11 08:57:08;;;;;;;1.77;0.93;;;21.90;62.40;;;;;;4194965;28;20063;-72
2022/06/11 08:59:42;;;;;;;2.45;0.90;;;21.90;62.50;;;;;;4190711;28;20107;-71
2022/06/11 09:01:49;;;;;;;2.88;1.30;;;22.10;61.30;;;;;;4155624;28;20057;-72
2022/06/11 09:04:13;;;;;;;2.40;1.00;;;22.20;62.80;;;;;;4193668;28;20119;-71
2022/06/11 09:06:38;;;;;;;1.58;0.88;;;22.20;61.40;;;;;;4191682;28;20056;-71
2022/06/11 09:09:08;;;;;;;2.33;0.80;;;22.20;60.10;;;;;;4190325;28;20147;-71
2022/06/11 09:11:37;;;;;;;3.85;1.27;;;22.20;58.70;;;;;;4191089;28;20129;-71
2022/06/11 09:13:51;;;;;;;2.03;1.00;;;22.00;60.10;;;;;;4190798;28;20179;-71
2022/06/11 09:16:10;;;;;;;3.30;0.75;;;21.80;60.00;;;;;;4190861;28;20135;-71
2022/06/11 09:18:50;;;;;;;4.03;0.80;;;21.70;61.00;;;;;;4191180;28;20053;-71
2022/06/11 09:21:09;;;;;;;2.67;0.85;;;21.60;61.60;;;;;;4194449;28;20063;-70
2022/06/11 09:23:29;;;;;;;4.47;1.20;;;21.80;61.70;;;;;;4195212;28;20061;-75
2022/06/11 09:25:49;;;;;;;1.25;1.10;;;22.00;60.60;;;;;;4193630;28;20150;-71
2022/06/11 09:28:31;;;;;;;1.67;0.90;;;22.10;59.50;;;;;;4192601;28;20914;-71
2022/06/11 09:30:41;;;;;;;1.40;0.80;;;22.10;60.60;;;;;;4192807;28;20167;-71
2022/06/11 09:32:45;;;;;;;3.55;1.08;;;22.10;59.00;;;;;;4193161;28;20137;-71
2022/06/11 09:34:51;;;;;;;2.75;1.55;;;22.00;59.40;;;;;;4192848;28;20103;-71
2022/06/11 09:37:00;;;;;;;1.70;0.80;;;22.00;61.00;;;;;;4192789;28;20067;-71
2022/06/11 09:39:20;;;;;;;5.72;1.75;;;21.90;60.50;;;;;;4193189;28;20061;-71
2022/06/11 09:41:40;;;;;;;1.35;0.73;;;21.70;60.40;;;;;;4190592;28;20864;-71
2022/06/11 09:43:42;;;;;;;1.70;0.95;;;21.60;60.80;;;;;;4194347;28;21229;-71
2022/06/11 09:46:21;;;;;;;2.75;1.42;;;21.50;62.30;;;;;;4194167;28;20634;-71
2022/06/11 09:48:37;;;;;;;1.52;0.95;;;21.40;63.80;;;;;;4193001;28;20057;-71
2022/06/11 09:50:54;;;;;;;1.77;0.93;;;21.40;64.20;;;;;;4195140;28;20795;-71
2022/06/11 09:53:33;;;;;;;4.40;1.17;;;21.40;65.10;;;;;;4195907;28;20057;-70
2022/06/11 09:55:57;;;;;;;2.25;1.08;;;21.40;65.10;;;;;;4195046;28;20769;-70
2022/06/11 09:58:17;;;;;;;6.97;1.27;;;21.70;65.50;;;;;;4194827;28;20156;-70
2022/06/11 10:00:46;;;;;;;3.83;0.80;;;22.00;60.70;;;;;;4193873;28;20760;-70
2022/06/11 10:03:01;;;;;;;2.03;0.85;;;22.30;60.80;;;;;;4190196;28;20160;-70
2022/06/11 10:05:13;;;;;;;2.35;0.82;;;22.20;60.00;;;;;;4194471;28;20091;-70
2022/06/11 10:07:20;;;;;;;3.90;1.02;;;22.20;59.50;;;;;;4194721;28;20061;-72
2022/06/11 10:09:30;;;;;;;1.30;0.82;;;22.20;59.40;;;;;;4194142;28;20065;-71
2022/06/11 10:12:16;;;;;;;1.95;0.88;;;22.20;60.50;;;;;;4195994;28;20061;-71
2022/06/11 10:14:30;;;;;;;2.65;1.10;;;22.60;59.30;;;;;;4161112;28;20058;-71
2022/06/11 10:16:37;;;;;;;2.13;0.85;;;22.80;59.50;;;;;;4158890;28;20880;-70
2022/06/11 10:18:39;;;;;;;2.75;1.30;;;22.80;59.40;;;;;;4165745;28;20093;-70
2022/06/11 10:20:51;;;;;;;2.80;1.52;;;22.80;59.60;;;;;;4193958;28;20192;-70
2022/06/11 10:23:27;;;;;;;2.67;0.95;;;22.80;60.70;;;;;;4210283;28;20753;-70
2022/06/11 10:25:54;;;;;;;2.80;0.98;;;22.70;60.10;;;;;;4194999;28;20060;-69
2022/06/11 10:28:14;;;;;;;1.58;0.95;;;22.50;59.80;;;;;;4194367;28;20183;-69
2022/06/11 10:30:24;;;;;;;;;;;22.40;60.00;;;;;;4196464;28;20159;-69
2022/06/11 10:32:38;;;;;;;1.38;1.02;;;22.20;60.80;;;;;;4196091;28;19975;-69
2022/06/11 10:34:45;;;;;;;1.83;1.17;;;22.10;60.50;;;;;;4197029;28;20112;-69
2022/06/11 10:37:07;;;;;;;2.85;1.25;;;22.00;59.40;;;;;;4198377;28;20048;-70
2022/06/11 10:39:27;;;;;;;2.05;0.98;;;22.10;60.90;;;;;;4199349;28;20057;-69
2022/06/11 10:41:46;;;;;;;2.63;1.20;;;22.40;58.90;;;;;;4195633;28;20060;-69
2022/06/11 10:44:03;;;;;;;1.50;0.88;;;22.70;58.00;;;;;;4199027;28;20072;-69
2022/06/11 10:46:08;;;;;;;1.25;0.93;;;23.00;58.50;;;;;;4197924;28;20056;-70
2022/06/11 10:48:18;;;;;;;2.22;1.08;;;23.30;57.00;;;;;;4198669;28;20092;-70
2022/06/11 10:50:34;;;;;;;1.63;1.15;;;23.40;56.50;;;;;;4195074;28;20217;-70
2022/06/11 10:53:17;;;;;;;1.30;0.80;;;23.50;58.40;;;;;;4195113;28;20052;-70
2022/06/11 10:55:26;;;;;;;2.53;1.33;;;23.70;56.80;;;;;;4188025;28;20767;-70
2022/06/11 10:57:31;;;;;;;3.50;1.20;;;23.90;55.90;;;;;;4197853;28;20091;-70
2022/06/11 10:59:55;;;;;;;3.45;1.10;;;24.00;56.20;;;;;;4198112;28;20860;-70
2022/06/11 11:02:25;;;;;;;2.22;1.25;;;24.20;56.20;;;;;;4198304;28;20103;-70
2022/06/11 11:04:36;;;;;;;2.10;1.10;;;24.20;55.00;;;;;;4195173;28;20079;-70
2022/06/11 11:06:38;;;;;;;3.25;1.00;;;24.30;56.50;;;;;;4195678;28;20096;-71
2022/06/11 11:08:53;;;;;;;1.02;0.80;;;24.20;56.50;;;;;;4196682;28;20084;-70
2022/06/11 11:10:58;;;;;;;2.83;0.93;;;24.20;55.80;;;;;;4196231;28;20060;-71